Depesze METAR lotnisk w Polsce

METAR – format kodowanego raportu o pogodzie używany w meteorologii lotniczej i prognozie pogody. METAR jest akronimem od ang. Meteorological Aerodrome Report. Typowy METAR zawiera informację o temperaturze, ciśnieniu, temperaturze punktu rosy, sile i kierunku wiatru, opadzie, pokrywie chmur, wysokości podstawy chmur, widzialności, lecz może zawierać też inne informacje (np. stan dróg startowych).

Warszawa-Okęcie (EPWA)

METAR = EPWA 190800Z 29007KT 250V320 CAVOK 25/12 Q1019 NOSIG

STACJA......... EPWA - Warszawa-Okęcie (WAW)
POMIAR......... Tue Jun 19, 10:00 CEST
WIATR.......... zachodni północno-zachodni (WNW) z prędkością 13 km/h
WIDZIALNOŚĆ.... powyżej 10 kilometrów
CHMURY......... bezchmurne niebo
TEMPERATURA.... 25°C
T.PUNKTU ROSY.. 12°C
WILGOTNOŚĆ..... 44%
CIŚNIENIE...... 1019 hPa
CIŚN.BEZWZGL... 1006 hPa
PROGNOZA....... bez nagłych zmian w ciągu 2h

Sprawdź też: Prognoza pogody Warszawa

Warszawa-Modlin (EPMO)

METAR = EPMO 190730Z 26008KT 210V300 CAVOK 24/12 Q1019 =

STACJA......... EPMO - Warszawa-Modlin (WMI)
POMIAR......... Tue Jun 19, 09:30 CEST
WIATR.......... zachodni (W) z prędkością 15 km/h
WIDZIALNOŚĆ.... powyżej 10 kilometrów
CHMURY......... bezchmurne niebo
TEMPERATURA.... 24°C
T.PUNKTU ROSY.. 12°C
WILGOTNOŚĆ..... 47%
CIŚNIENIE...... 1019 hPa
CIŚN.BEZWZGL... 1007 hPa

Sprawdź też: Prognoza pogody Nowy Dwór Mazowiecki

Kraków-Balice (EPKK)

METAR = EPKK 190800Z VRB02KT CAVOK 23/12 Q1021

STACJA......... EPKK - Kraków-Balice (KRK)
POMIAR......... Tue Jun 19, 10:00 CEST
WIATR.......... zmienny z prędkością 4 km/h
WIDZIALNOŚĆ.... powyżej 10 kilometrów
CHMURY......... bezchmurne niebo
TEMPERATURA.... 23°C
T.PUNKTU ROSY.. 12°C
WILGOTNOŚĆ..... 50%
CIŚNIENIE...... 1021 hPa
CIŚN.BEZWZGL... 993 hPa

Sprawdź też: Prognoza pogody Kraków

Łódź-Lublinek (EPLL)

METAR = EPLL 190800Z 27010KT 230V300 CAVOK 24/10 Q1020

STACJA......... EPLL - Łódź-Lublinek (LCJ)
POMIAR......... Tue Jun 19, 10:00 CEST
WIATR.......... zachodni (W) z prędkością 19 km/h
WIDZIALNOŚĆ.... powyżej 10 kilometrów
CHMURY......... bezchmurne niebo
TEMPERATURA.... 24°C
T.PUNKTU ROSY.. 10°C
WILGOTNOŚĆ..... 41%
CIŚNIENIE...... 1020 hPa
CIŚN.BEZWZGL... 999 hPa

Sprawdź też: Prognoza pogody Łódź

Wrocław-Strachowice (EPWR)

METAR = EPWR 190800Z 29009KT 240V340 CAVOK 25/12 Q1021

STACJA......... EPWR - Wrocław-Strachowice (WRO)
POMIAR......... Tue Jun 19, 10:00 CEST
WIATR.......... zachodni północno-zachodni (WNW) z prędkością 17 km/h
WIDZIALNOŚĆ.... powyżej 10 kilometrów
CHMURY......... bezchmurne niebo
TEMPERATURA.... 25°C
T.PUNKTU ROSY.. 12°C
WILGOTNOŚĆ..... 44%
CIŚNIENIE...... 1021 hPa
CIŚN.BEZWZGL... 1007 hPa

Sprawdź też: Prognoza pogody Wrocław

Katowice-Pyrzowice (EPKT)

METAR = EPKT 190800Z VRB03KT CAVOK 23/10 Q1022

STACJA......... EPKT - Katowice-Pyrzowice (KTW)
POMIAR......... Tue Jun 19, 10:00 CEST
WIATR.......... zmienny z prędkością 6 km/h
WIDZIALNOŚĆ.... powyżej 10 kilometrów
CHMURY......... bezchmurne niebo
TEMPERATURA.... 23°C
T.PUNKTU ROSY.. 10°C
WILGOTNOŚĆ..... 44%
CIŚNIENIE...... 1022 hPa
CIŚN.BEZWZGL... 987 hPa

Sprawdź też: Prognoza pogody Katowice

Gdańsk (EPGD)

METAR = EPGD 190800Z 26012KT 230V290 9999 FEW030 21/13 Q1016

STACJA......... EPGD - Gdańsk im. Lecha Wałęsy (GDN)
POMIAR......... Tue Jun 19, 10:00 CEST
WIATR.......... zachodni (W) z prędkością 22 km/h
WIDZIALNOŚĆ.... powyżej 10 kilometrów
CHMURY......... zachmurzenie niewielkie (1/8-2/8)
TEMPERATURA.... 21°C
T.PUNKTU ROSY.. 13°C
WILGOTNOŚĆ..... 60%
CIŚNIENIE...... 1016 hPa
CIŚN.BEZWZGL... 999 hPa

Sprawdź też: Prognoza pogody Gdańsk

Poznań-Ławica (EPPO)

METAR = EPPO 190800Z 26008KT CAVOK 23/13 Q1020

STACJA......... EPPO - Poznań-Ławica (POZ)
POMIAR......... Tue Jun 19, 10:00 CEST
WIATR.......... zachodni (W) z prędkością 15 km/h
WIDZIALNOŚĆ.... powyżej 10 kilometrów
CHMURY......... bezchmurne niebo
TEMPERATURA.... 23°C
T.PUNKTU ROSY.. 13°C
WILGOTNOŚĆ..... 53%
CIŚNIENIE...... 1020 hPa
CIŚN.BEZWZGL... 1009 hPa

Sprawdź też: Prognoza pogody Poznań

Rzeszów-Jasionka (EPRZ)

METAR = EPRZ 190800Z 25005KT 220V300 CAVOK 22/18 Q1020

STACJA......... EPRZ - Rzeszów-Jasionka (RZE)
POMIAR......... Tue Jun 19, 10:00 CEST
WIATR.......... zachodni południowo-zachodni (WSW) z prędkością 9 km/h
WIDZIALNOŚĆ.... powyżej 10 kilometrów
CHMURY......... bezchmurne niebo
TEMPERATURA.... 22°C
T.PUNKTU ROSY.. 18°C
WILGOTNOŚĆ..... 78%
CIŚNIENIE...... 1020 hPa
CIŚN.BEZWZGL... 996 hPa

Sprawdź też: Prognoza pogody Rzeszów

Szczecin-Goleniów (EPSC)

METAR = EPSC 190800Z 24010KT 9999 SCT027 SCT036 20/13 Q1018

STACJA......... EPSC - Szczecin-Goleniów (SZZ)
POMIAR......... Tue Jun 19, 10:00 CEST
WIATR.......... zachodni południowo-zachodni (WSW) z prędkością 19 km/h
WIDZIALNOŚĆ.... powyżej 10 kilometrów
CHMURY......... zachmurzenie małe (3/8-4/8)
TEMPERATURA.... 20°C
T.PUNKTU ROSY.. 13°C
WILGOTNOŚĆ..... 64%
CIŚNIENIE...... 1018 hPa
CIŚN.BEZWZGL... 1012 hPa

Sprawdź też: Prognoza pogody Szczecin

Lublin-Świdnik (EPLB)

METAR = EPLB 190730Z 30006KT 270V330 CAVOK 24/17 Q1019 =

STACJA......... EPLB - Lublin-Świdnik (LUZ)
POMIAR......... Tue Jun 19, 09:30 CEST
WIATR.......... zachodni północno-zachodni (WNW) z prędkością 11 km/h
WIDZIALNOŚĆ.... powyżej 10 kilometrów
CHMURY......... bezchmurne niebo
TEMPERATURA.... 24°C
T.PUNKTU ROSY.. 17°C
WILGOTNOŚĆ..... 65%
CIŚNIENIE...... 1019 hPa
CIŚN.BEZWZGL... 996 hPa

Sprawdź też: Prognoza pogody Lublin

Bydgoszcz-Szwederowo (EPBY)

METAR = EPBY 190730Z 27013KT 9999 SCT046 22/12 Q1019 =

STACJA......... EPBY - Bydgoszcz-Szwederowo (BZG)
POMIAR......... Tue Jun 19, 09:30 CEST
WIATR.......... zachodni (W) z prędkością 24 km/h
WIDZIALNOŚĆ.... powyżej 10 kilometrów
CHMURY......... zachmurzenie małe (3/8-4/8)
TEMPERATURA.... 22°C
T.PUNKTU ROSY.. 12°C
WILGOTNOŚĆ..... 53%
CIŚNIENIE...... 1019 hPa
CIŚN.BEZWZGL... 1011 hPa

Sprawdź też: Prognoza pogody Bydgoszcz

Zielona Góra-Babimost (EPZG)

METAR = EPZG 190730Z 23009KT 9999 SCT047 20/13 Q1021 =

STACJA......... EPZG - Zielona Góra-Babimost (IEG)
POMIAR......... Tue Jun 19, 09:30 CEST
WIATR.......... południowo-zachodni (SW) z prędkością 17 km/h
WIDZIALNOŚĆ.... powyżej 10 kilometrów
CHMURY......... zachmurzenie małe (3/8-4/8)
TEMPERATURA.... 20°C
T.PUNKTU ROSY.. 13°C
WILGOTNOŚĆ..... 64%
CIŚNIENIE...... 1021 hPa
CIŚN.BEZWZGL... 1014 hPa

Sprawdź też: Prognoza pogody Zielona Góra

Szymany Olsztyn-Mazury (EPSY)

METAR = EPSY 190730Z 24011KT 210V270 CAVOK 22/12 Q1018=

STACJA......... EPSY - Olsztyn-Mazury (SZY)
POMIAR......... Tue Jun 19, 09:30 CEST
WIATR.......... zachodni południowo-zachodni (WSW) z prędkością 20 km/h
WIDZIALNOŚĆ.... powyżej 10 kilometrów
CHMURY......... bezchmurne niebo
TEMPERATURA.... 22°C
T.PUNKTU ROSY.. 12°C
WILGOTNOŚĆ..... 53%
CIŚNIENIE...... 1018 hPa
CIŚN.BEZWZGL... 1002 hPa

Sprawdź też: Prognoza pogody Olsztyn